Flight Track Log - Related Links

Times and Time Zones

All times are in EDT time to prevent confusion due to time zone crossing. See the SWA1275 flight status page for this flight to view local times or setup timezone preferences in your user account.

Time Position Orientation Groundspeed Altitude Reporting Facility
EDT Latitude Longitude Course Direction KTS MPH feet Rate Location/Type
Thu 09:10:17 AM 33.4333 -112.0000 90° East 180 207 1,800  Level Phoenix TRACON
Thu 09:11:17 AM 33.4333 -111.9500 90° East 204 235 4,300 3,238 Climbing Phoenix TRACON
Thu 09:12:23 AM 33.4000 -111.9000 129° Southeast 221 254 8,600 3,737 Climbing Phoenix TRACON
Thu 09:13:11 AM 33.3667 -111.9500 231° Southwest 269 310 11,400 3,505 Climbing Phoenix TRACON
Thu 09:14:04 AM 33.3728 -112.0375 275° West 309 356 14,500 3,842 Climbing Albuquerque Center
Thu 09:15:05 AM 33.3831 -112.1458 277° West 323 372 18,700 3,738 Climbing Albuquerque Center
Thu 09:16:06 AM 33.3953 -112.2628 277° West 347 399 22,100 3,344 Climbing Albuquerque Center
Thu 09:17:07 AM 33.4083 -112.3889 277° West 373 429 25,500 3,471 Climbing Albuquerque Center
Thu 09:18:07 AM 33.4219 -112.5172 277° West 384 442 29,100 3,223 Climbing Albuquerque Center
Thu 09:19:08 AM 33.4347 -112.6425 277° West 372 428 32,000 1,426 Climbing Albuquerque Center
Thu 09:20:09 AM 33.4467 -112.7600 277° West 363 418 32,000  Level Albuquerque Center
Thu 09:21:10 AM 33.4622 -112.8772 279° West 361 415 32,000  Level Albuquerque Center
Thu 09:22:11 AM 33.4861 -112.9936 284° West 360 414 32,000  Level Albuquerque Center
Thu 09:23:12 AM 33.5081 -113.1100 283° West 361 415 32,000  Level Albuquerque Center
Thu 09:24:13 AM 33.5306 -113.2289 283° West 361 415 32,000  Level Albuquerque Center
Thu 09:25:14 AM 33.5525 -113.3467 283° West 361 415 32,000  Level Albuquerque Center
Thu 09:26:15 AM 33.5744 -113.4644 283° West 362 417 32,000  Level Albuquerque Center
Thu 09:27:16 AM 33.5964 -113.5817 283° West 362 417 32,000  Level Albuquerque Center
Thu 09:28:17 AM 33.6192 -113.6983 283° West 362 417 32,000  Level Albuquerque Center
Thu 09:29:18 AM 33.6453 -113.8392 283° West 361 415 32,000  Level Albuquerque Center
Thu 09:30:19 AM 33.6656 -113.9569 282° West 361 415 32,000  Level Albuquerque Center
Thu 09:31:20 AM 33.6883 -114.0733 283° West 362 417 32,000  Level Albuquerque Center
Thu 09:32:21 AM 33.7106 -114.1917 283° West 362 417 32,000  Level Albuquerque Center
Thu 09:33:14 AM 33.7269 -114.2858 282° West 362 417 32,000  Level Los Angeles Center
Thu 09:34:16 AM 33.7483 -114.4017 283° West 361 415 32,000  Level Los Angeles Center
Thu 09:35:17 AM 33.7742 -114.5425 282° West 361 415 32,000  Level Los Angeles Center
Thu 09:37:19 AM 33.7875 -114.7794 274° West 359 413 32,000  Level Los Angeles Center
Thu 09:38:20 AM 33.7942 -114.8969 274° West 358 412 32,000 -98 Level Los Angeles Center
Thu 09:39:22 AM 33.8003 -115.0147 274° West 356 410 31,800 -585 Descending Los Angeles Center
Thu 09:40:23 AM 33.8072 -115.1333 274° West 356 410 30,800 -984 Descending Los Angeles Center
Thu 09:41:24 AM 33.8122 -115.2492 273° West 353 406 29,800 -976 Descending Los Angeles Center
Thu 09:42:26 AM 33.8203 -115.3653 275° West 352 405 28,800 -878 Descending Los Angeles Center
Thu 09:43:27 AM 33.8267 -115.5078 273° West 358 412 28,000 -780 Descending Los Angeles Center
Thu 09:44:29 AM 33.8314 -115.6258 273° West 356 410 27,200 -878 Descending Los Angeles Center
Thu 09:45:30 AM 33.8375 -115.7442 274° West 356 410 26,200 -984 Descending Los Angeles Center
Thu 09:46:31 AM 33.8436 -115.8614 274° West 356 410 25,200 -976 Descending Los Angeles Center
Thu 09:47:33 AM 33.8489 -115.9783 273° West 355 409 24,200 -585 Descending Los Angeles Center
Thu 09:48:34 AM 33.8553 -116.0908 274° West 347 399 24,000 -98 Descending Los Angeles Center
Thu 09:49:36 AM 33.8597 -116.2033 273° West 342 394 24,000 -98 Level Los Angeles Center
Thu 09:50:37 AM 33.8656 -116.3153 274° West 340 391 23,800 -1,220 Descending Los Angeles Center
Thu 09:51:39 AM 33.8714 -116.4475 273° West 331 381 21,500 -2,098 Descending Los Angeles Center
Thu 09:52:40 AM 33.8756 -116.5519 273° West 320 368 19,500 -1,902 Descending Los Angeles Center
Thu 09:53:42 AM 33.8797 -116.6547 273° West 313 360 17,600 -1,902 Descending Los Angeles Center
Thu 09:54:43 AM 33.8850 -116.7583 274° West 313 360 15,600 -1,805 Descending Los Angeles Center
Thu 09:55:45 AM 33.8931 -116.8617 275° West 313 360 13,900 -1,805 Descending Los Angeles Center
Thu 09:56:56 AM 33.9333 -116.9833 292° West 288 331 11,600 -2,227 Descending Southern California TRACON
Thu 09:57:57 AM 33.9667 -117.0667 296° West 276 318 9,000 -2,348 Descending Southern California TRACON
Thu 09:58:51 AM 33.9833 -117.1500 284° West 271 312 7,100 -1,295 Descending Southern California TRACON
Thu 10:00:53 AM 34.0344 -117.2967 296° West 241 277 5,200 -833 Descending Los Angeles Center
Thu 10:01:51 AM 34.0500 -117.3667 285° West 202 232 4,600 -804 Descending Southern California TRACON
Thu 10:02:45 AM 34.0500 -117.4167 270° West 205 236 3,700 -926 Descending Southern California TRACON
Thu 10:04:46 AM 34.0500 -117.5333 270° West 137 158 1,900 -823 Descending Southern California TRACON
Thu 10:05:40 AM 34.0500 -117.5667 270° West 132 152 1,300 -667 Descending Southern California TRACON
Thu 10:08:00 AM 34.0500 -117.6000 292° West  Level FlightAware Approximate
Thu 10:15:00 AM 34.0560 -117.6012 292° West  Level Estimated

Login

Don't have an account? Register now (free) for customized features, flight alerts, and more!